Time;durP1;ratioP1;P1;durP2;ratioP2;P2;SDS_P1;SDS_P2;PMS_P1;PMS_P2;Temp;Humidity;BMP_temperature;BMP_pressure;BME280_temperature;BME280_humidity;BME280_pressure;Samples;Min_cycle;Max_cycle;Signal;HPM_P1;HPM_P2
2022/11/03 00:00:10;;;;;;;2.10;0.90;;;13.10;99.90;;;;;;5023886;28;20064;-83
2022/11/03 00:02:38;;;;;;;2.78;1.20;;;13.00;99.90;;;;;;5006352;28;20059;-85
2022/11/03 00:06:03;;;;;;;1.40;0.73;;;13.10;99.90;;;;;;5017356;28;20060;-83
2022/11/03 00:07:53;;;;;;;0.85;0.70;;;13.00;99.90;;;;;;5023956;28;20077;-85
2022/11/03 00:10:19;;;;;;;1.27;0.80;;;13.00;99.90;;;;;;5017379;28;20128;-82
2022/11/03 00:12:46;;;;;;;1.25;0.75;;;13.00;99.90;;;;;;5012339;28;20107;-84
2022/11/03 00:15:13;;;;;;;1.05;0.70;;;12.90;99.90;;;;;;5030212;28;20049;-81
2022/11/03 00:17:40;;;;;;;0.45;0.45;;;12.90;99.90;;;;;;5021966;28;20050;-80
2022/11/03 00:20:08;;;;;;;1.25;0.77;;;12.80;99.90;;;;;;5031342;28;20049;-81
2022/11/03 00:22:35;;;;;;;0.65;0.50;;;12.70;99.90;;;;;;5007602;28;20071;-78
2022/11/03 00:25:02;;;;;;;0.88;0.50;;;12.70;99.90;;;;;;5041635;28;20056;-77
2022/11/03 00:27:29;;;;;;;1.25;0.68;;;12.70;99.90;;;;;;5022423;28;20074;-77
2022/11/03 00:29:59;;;;;;;1.23;0.60;;;12.60;99.90;;;;;;5014616;28;20377;-77
2022/11/03 00:32:25;;;;;;;1.52;0.70;;;12.60;99.90;;;;;;5021421;28;20076;-78
2022/11/03 00:34:52;;;;;;;2.03;0.80;;;12.50;99.90;;;;;;5034754;28;20557;-77
2022/11/03 00:37:19;;;;;;;0.55;0.55;;;12.50;99.90;;;;;;5040821;28;20049;-77
2022/11/03 00:39:46;;;;;;;3.13;0.95;;;12.40;99.90;;;;;;5040937;28;20049;-77
2022/11/03 00:42:12;;;;;;;0.60;0.50;;;12.40;99.90;;;;;;5024720;28;20045;-78
2022/11/03 00:44:39;;;;;;;0.80;0.63;;;12.30;99.90;;;;;;5025994;28;20048;-85
2022/11/03 00:47:06;;;;;;;1.23;0.50;;;12.30;99.90;;;;;;5044529;28;20049;-85
2022/11/03 00:49:33;;;;;;;1.08;0.70;;;12.30;99.90;;;;;;5044875;28;20079;-87
2022/11/03 00:52:00;;;;;;;0.95;0.88;;;12.30;99.90;;;;;;5045176;28;20064;-84
2022/11/03 00:54:28;;;;;;;0.77;0.52;;;12.20;99.90;;;;;;5006356;28;20052;-81
2022/11/03 00:56:55;;;;;;;1.15;0.60;;;12.20;99.90;;;;;;5005440;28;20132;-81
2022/11/03 00:59:22;;;;;;;0.82;0.50;;;12.10;99.90;;;;;;5025060;28;20059;-81
2022/11/03 01:01:49;;;;;;;1.02;0.68;;;12.10;99.90;;;;;;5041104;28;20064;-80
2022/11/03 01:07:01;;;;;;;0.90;0.38;;;12.10;99.90;;;;;;5041888;28;20056;-78
2022/11/03 01:09:29;;;;;;;0.55;0.40;;;12.10;99.90;;;;;;5042218;28;20095;-77
2022/11/03 01:12:07;;;;;;;0.45;0.45;;;12.10;99.90;;;;;;5026590;28;20049;-77
2022/11/03 01:14:48;;;;;;;0.35;0.30;;;12.00;99.90;;;;;;5004784;28;20065;-77
2022/11/03 01:17:19;;;;;;;0.57;0.45;;;12.00;99.90;;;;;;5020664;28;20053;-77
2022/11/03 01:19:46;;;;;;;0.55;0.40;;;12.00;99.90;;;;;;5027282;28;20045;-77
2022/11/03 01:22:13;;;;;;;0.88;0.65;;;12.00;99.90;;;;;;5040383;28;20053;-78
2022/11/03 01:24:40;;;;;;;0.45;0.40;;;12.00;99.90;;;;;;5042343;28;20056;-78
2022/11/03 01:27:12;;;;;;;0.40;0.30;;;12.00;99.90;;;;;;5024185;28;20095;-80
2022/11/03 01:29:39;;;;;;;0.32;0.32;;;12.00;99.90;;;;;;5024630;28;20136;-82
2022/11/03 01:32:07;;;;;;;0.30;0.30;;;12.00;99.90;;;;;;5009350;28;20048;-85
2022/11/03 01:34:34;;;;;;;0.40;0.40;;;12.10;99.90;;;;;;5009062;28;20045;-85
2022/11/03 01:37:01;;;;;;;0.47;0.20;;;12.00;99.90;;;;;;5004137;28;20169;-80
2022/11/03 01:39:28;;;;;;;0.63;0.35;;;12.10;99.90;;;;;;5024583;28;20128;-78
2022/11/03 01:41:55;;;;;;;0.60;0.40;;;12.10;99.90;;;;;;5007656;28;20623;-78
2022/11/03 01:44:21;;;;;;;0.98;0.40;;;12.10;99.90;;;;;;5024192;28;20049;-77
2022/11/03 01:46:58;;;;;;;0.85;0.40;;;12.10;99.90;;;;;;5042413;28;20436;-78
2022/11/03 01:49:31;;;;;;;0.30;0.30;;;12.10;99.90;;;;;;5007487;28;20508;-77
2022/11/03 01:52:06;;;;;;;0.43;0.30;;;12.10;99.90;;;;;;5023633;28;20059;-77
2022/11/03 01:54:33;;;;;;;0.20;0.20;;;12.10;99.90;;;;;;5005465;28;20056;-77
2022/11/03 01:57:00;;;;;;;0.30;0.30;;;12.10;99.90;;;;;;5020830;28;20249;-77
2022/11/03 01:59:26;;;;;;;0.20;0.20;;;12.10;99.90;;;;;;5024136;28;20070;-76
2022/11/03 02:01:53;;;;;;;0.47;0.30;;;12.10;99.90;;;;;;5040183;28;20045;-76
2022/11/03 02:04:24;;;;;;;0.20;0.20;;;12.10;99.90;;;;;;5040126;28;20059;-77
2022/11/03 02:06:57;;;;;;;0.20;0.20;;;12.10;99.90;;;;;;5039914;28;20052;-76
2022/11/03 02:09:24;;;;;;;;;;;12.10;99.90;;;;;;5040160;28;20071;-76
2022/11/03 02:12:06;;;;;;;0.30;0.30;;;12.10;99.90;;;;;;5023086;28;19921;-76
2022/11/03 02:14:39;;;;;;;0.57;0.40;;;12.10;99.90;;;;;;5031129;28;20052;-77
2022/11/03 02:17:08;;;;;;;0.20;0.20;;;12.20;99.90;;;;;;5023296;28;20053;-76
2022/11/03 02:19:45;;;;;;;0.17;0.17;;;12.20;99.90;;;;;;5023643;28;20049;-76
2022/11/03 02:22:33;;;;;;;0.70;0.40;;;12.20;99.90;;;;;;5025037;28;20053;-76
2022/11/03 02:25:15;;;;;;;0.45;0.20;;;12.20;99.90;;;;;;5044695;28;20509;-76
2022/11/03 02:27:42;;;;;;;0.65;0.35;;;12.10;99.90;;;;;;5045321;28;20438;-76
2022/11/03 02:30:09;;;;;;;0.40;0.40;;;12.20;99.90;;;;;;5042752;28;20045;-75
2022/11/03 02:32:41;;;;;;;0.60;0.45;;;12.10;99.90;;;;;;5028692;28;20049;-76
2022/11/03 02:35:16;;;;;;;0.30;0.30;;;12.10;99.90;;;;;;5029066;28;20051;-76
2022/11/03 02:37:48;;;;;;;0.40;0.30;;;12.10;99.90;;;;;;5046156;28;20045;-75
2022/11/03 02:40:20;;;;;;;0.38;0.30;;;12.10;99.90;;;;;;5029573;28;20057;-76
2022/11/03 02:42:49;;;;;;;0.20;0.15;;;12.10;99.90;;;;;;5045358;28;20063;-75
2022/11/03 02:45:17;;;;;;;0.28;0.28;;;12.10;99.90;;;;;;5012155;28;20049;-76
2022/11/03 02:47:44;;;;;;;0.20;0.20;;;12.10;99.90;;;;;;5015606;28;20068;-76
2022/11/03 02:50:12;;;;;;;0.30;0.30;;;12.10;99.90;;;;;;5014100;28;20107;-76
2022/11/03 02:52:40;;;;;;;0.30;0.30;;;12.10;99.90;;;;;;5045392;28;20087;-76
2022/11/03 02:55:24;;;;;;;0.20;0.20;;;12.20;99.90;;;;;;5026437;28;20500;-77
2022/11/03 02:57:58;;;;;;;0.40;0.40;;;12.20;99.90;;;;;;5026580;28;20060;-77
2022/11/03 03:00:25;;;;;;;0.60;0.40;;;12.20;99.90;;;;;;5011338;28;20112;-80
2022/11/03 03:02:53;;;;;;;0.45;0.40;;;12.30;99.90;;;;;;5028824;28;20160;-85
2022/11/03 03:05:22;;;;;;;0.73;0.50;;;12.30;99.90;;;;;;5035294;28;20053;-84
2022/11/03 03:07:50;;;;;;;0.77;0.50;;;12.30;99.90;;;;;;5010503;28;20060;-81
2022/11/03 03:10:21;;;;;;;0.93;0.40;;;12.30;99.90;;;;;;5012306;28;20053;-84
2022/11/03 03:12:50;;;;;;;0.50;0.50;;;12.30;99.90;;;;;;4995998;28;20050;-79
2022/11/03 03:15:17;;;;;;;0.10;0.10;;;12.40;99.90;;;;;;5002597;28;20588;-78
2022/11/03 03:17:45;;;;;;;0.45;0.32;;;12.40;99.90;;;;;;5026419;28;20057;-78
2022/11/03 03:20:18;;;;;;;0.63;0.47;;;12.40;99.90;;;;;;5010656;28;20053;-78
2022/11/03 03:22:48;;;;;;;3.15;0.90;;;12.40;99.90;;;;;;5025868;28;20050;-79
2022/11/03 03:25:26;;;;;;;0.60;0.50;;;12.40;99.90;;;;;;5031167;28;20078;-80
2022/11/03 03:28:01;;;;;;;0.73;0.55;;;12.50;99.90;;;;;;5043585;28;20041;-80
2022/11/03 03:30:28;;;;;;;1.02;0.43;;;12.40;99.90;;;;;;5029876;28;20056;-81
2022/11/03 03:32:55;;;;;;;2.42;0.93;;;12.50;99.90;;;;;;5029166;28;20045;-80
2022/11/03 03:35:23;;;;;;;1.38;0.80;;;12.50;99.90;;;;;;5030500;28;20127;-80
2022/11/03 03:37:52;;;;;;;1.23;0.80;;;12.50;99.90;;;;;;5030082;28;20622;-80
2022/11/03 03:40:27;;;;;;;4.50;1.00;;;12.50;99.90;;;;;;5030676;28;20496;-79
2022/11/03 03:42:54;;;;;;;2.42;0.98;;;12.50;99.90;;;;;;5030656;28;20053;-81
2022/11/03 03:45:21;;;;;;;0.98;0.68;;;12.60;99.90;;;;;;5028194;28;20041;-80
2022/11/03 03:47:48;;;;;;;0.80;0.55;;;12.50;99.90;;;;;;5046801;28;20045;-79
2022/11/03 03:50:18;;;;;;;1.63;0.85;;;12.50;99.90;;;;;;5030136;28;20087;-78
2022/11/03 03:52:45;;;;;;;1.17;0.60;;;12.60;99.90;;;;;;5046230;28;20061;-77
2022/11/03 03:55:16;;;;;;;1.40;0.80;;;12.60;99.90;;;;;;5026455;28;20401;-77
2022/11/03 03:57:43;;;;;;;1.65;0.60;;;12.50;99.90;;;;;;5027044;28;20060;-77
2022/11/03 04:00:15;;;;;;;2.08;0.93;;;12.60;99.90;;;;;;5007970;28;20045;-77
2022/11/03 04:02:42;;;;;;;1.88;0.63;;;12.60;99.90;;;;;;5026383;28;20532;-76
2022/11/03 04:05:09;;;;;;;1.73;0.70;;;12.60;99.90;;;;;;5033506;28;20080;-76
2022/11/03 04:07:47;;;;;;;2.05;0.88;;;12.60;99.90;;;;;;5026528;28;20060;-77
2022/11/03 04:10:15;;;;;;;0.93;0.60;;;12.60;99.90;;;;;;5026046;28;20045;-79
2022/11/03 04:23:43;;;;;;;1.55;0.57;;;12.70;99.90;;;;;;5033976;28;20047;-77
2022/11/03 04:26:14;;;;;;;0.50;0.47;;;12.80;99.90;;;;;;5045820;28;20057;-76
2022/11/03 04:28:41;;;;;;;2.63;0.60;;;12.80;99.90;;;;;;5029804;28;20262;-76
2022/11/03 04:31:12;;;;;;;0.40;0.40;;;12.80;99.90;;;;;;5027742;28;20053;-76
2022/11/03 04:33:39;;;;;;;1.85;0.70;;;12.80;99.90;;;;;;5029320;28;20049;-76
2022/11/03 04:36:10;;;;;;;0.40;0.40;;;12.90;99.90;;;;;;5028884;28;20500;-76
2022/11/03 04:38:37;;;;;;;1.25;0.60;;;12.90;99.90;;;;;;5045676;28;20049;-77
2022/11/03 04:41:24;;;;;;;1.60;0.93;;;12.90;99.90;;;;;;5012595;28;20045;-79
2022/11/03 04:43:51;;;;;;;0.60;0.50;;;12.90;99.90;;;;;;5036847;28;20059;-79
2022/11/03 04:46:28;;;;;;;1.58;0.68;;;12.90;99.90;;;;;;5007530;28;20041;-78
2022/11/03 04:48:59;;;;;;;0.65;0.50;;;12.90;99.90;;;;;;5026303;28;20053;-78
2022/11/03 04:51:28;;;;;;;0.68;0.40;;;12.90;99.90;;;;;;5026922;28;20141;-79
2022/11/03 04:54:05;;;;;;;1.15;0.57;;;12.90;99.90;;;;;;5038415;28;20057;-80
2022/11/03 04:56:32;;;;;;;0.60;0.50;;;12.90;99.90;;;;;;5034674;28;20095;-77
2022/11/03 04:58:59;;;;;;;3.40;0.60;;;12.90;99.90;;;;;;5015321;28;20045;-78
2022/11/03 05:01:26;;;;;;;1.23;0.40;;;12.90;99.90;;;;;;5012130;28;20903;-78
2022/11/03 05:03:53;;;;;;;0.50;0.50;;;12.90;99.90;;;;;;5045652;28;20057;-78
2022/11/03 05:06:25;;;;;;;1.15;0.40;;;12.90;99.90;;;;;;5025851;28;20053;-78
2022/11/03 05:09:26;;;;;;;0.80;0.30;;;12.90;99.90;;;;;;5025890;28;20049;-76
2022/11/03 05:11:53;;;;;;;0.52;0.40;;;12.90;99.90;;;;;;5014787;28;20055;-76
2022/11/03 05:14:26;;;;;;;1.00;0.57;;;12.90;99.90;;;;;;5035416;28;20104;-77
2022/11/03 05:16:53;;;;;;;;;;;12.90;99.90;;;;;;5029752;28;20052;-76
2022/11/03 05:19:21;;;;;;;0.60;0.40;;;13.00;99.90;;;;;;5028476;28;19921;-76
2022/11/03 05:21:49;;;;;;;0.68;0.43;;;13.00;99.90;;;;;;5028309;28;20508;-78
2022/11/03 05:24:15;;;;;;;2.13;0.75;;;13.00;99.90;;;;;;5028596;28;20056;-78
2022/11/03 05:26:42;;;;;;;0.63;0.40;;;13.00;99.90;;;;;;5028778;28;20052;-78
2022/11/03 05:29:10;;;;;;;0.45;0.30;;;13.00;99.90;;;;;;5045002;28;20128;-77
2022/11/03 05:31:37;;;;;;;0.57;0.30;;;13.00;99.90;;;;;;5044376;28;20053;-78
2022/11/03 05:34:33;;;;;;;0.35;0.30;;;13.00;99.90;;;;;;5028878;28;20136;-78
2022/11/03 05:37:06;;;;;;;0.73;0.50;;;13.00;99.90;;;;;;5044992;28;20048;-77
2022/11/03 05:39:35;;;;;;;0.63;0.55;;;13.00;99.90;;;;;;5045261;28;20049;-81
2022/11/03 05:42:05;;;;;;;0.60;0.52;;;13.00;99.90;;;;;;5045414;28;20053;-80
2022/11/03 05:44:35;;;;;;;0.80;0.52;;;13.10;99.90;;;;;;5027431;28;20053;-79
2022/11/03 05:47:07;;;;;;;0.38;0.38;;;13.10;99.90;;;;;;5019987;28;20053;-78
2022/11/03 05:49:34;;;;;;;0.93;0.60;;;13.10;99.90;;;;;;5012331;28;20049;-77
2022/11/03 05:52:01;;;;;;;1.48;0.70;;;13.10;99.90;;;;;;5010339;28;20052;-76
2022/11/03 05:54:30;;;;;;;1.35;0.60;;;13.10;99.90;;;;;;5034587;28;20539;-76
2022/11/03 05:56:57;;;;;;;1.40;0.88;;;13.20;99.90;;;;;;5034426;28;20618;-77
2022/11/03 05:59:25;;;;;;;2.53;0.93;;;13.20;99.90;;;;;;5018622;28;20049;-76
2022/11/03 06:01:52;;;;;;;2.60;0.65;;;13.20;99.90;;;;;;5002216;28;20136;-77
2022/11/03 06:04:25;;;;;;;1.80;0.60;;;13.20;99.90;;;;;;5033214;28;20434;-77
2022/11/03 06:06:53;;;;;;;0.73;0.55;;;13.20;99.90;;;;;;5017831;28;20045;-77
2022/11/03 06:09:22;;;;;;;2.80;1.08;;;13.20;99.90;;;;;;5028010;28;20049;-78
2022/11/03 06:11:49;;;;;;;0.93;0.60;;;13.20;99.90;;;;;;5035286;28;20059;-77
2022/11/03 06:14:25;;;;;;;1.00;0.57;;;13.30;99.90;;;;;;5021790;28;20480;-81
2022/11/03 06:16:59;;;;;;;1.42;0.70;;;13.30;99.90;;;;;;5015504;28;20057;-86
2022/11/03 06:19:46;;;;;;;1.27;0.80;;;13.30;99.90;;;;;;5035742;28;20053;-88
2022/11/03 06:22:20;;;;;;;2.17;1.10;;;13.20;99.90;;;;;;5011801;28;20049;-83
2022/11/03 06:24:47;;;;;;;2.17;0.88;;;13.20;99.90;;;;;;5041224;28;20057;-82
2022/11/03 06:27:22;;;;;;;4.05;1.25;;;13.20;99.90;;;;;;5005914;28;20432;-85
2022/11/03 06:29:56;;;;;;;2.53;0.73;;;13.00;99.90;;;;;;5011959;28;20057;-88
2022/11/03 06:32:26;;;;;;;2.05;0.85;;;12.90;99.90;;;;;;4999351;28;20041;-82
2022/11/03 06:34:54;;;;;;;2.60;0.98;;;12.70;99.90;;;;;;5026379;28;20048;-79
2022/11/03 06:37:30;;;;;;;1.90;1.25;;;12.60;99.90;;;;;;5006395;28;20117;-80
2022/11/03 06:40:13;;;;;;;0.70;0.60;;;12.40;99.90;;;;;;5036607;28;20064;-81
2022/11/03 06:42:41;;;;;;;1.17;0.75;;;12.20;99.90;;;;;;5031263;28;20129;-82
2022/11/03 06:45:21;;;;;;;0.82;0.60;;;12.10;99.90;;;;;;5018595;28;20049;-84
2022/11/03 06:47:48;;;;;;;0.57;0.50;;;12.00;99.90;;;;;;5030636;28;20120;-83
2022/11/03 06:50:33;;;;;;;1.15;0.40;;;11.90;99.90;;;;;;5004457;28;20060;-85
2022/11/03 06:53:02;;;;;;;1.20;0.57;;;11.80;99.90;;;;;;5011143;28;20064;-83
2022/11/03 06:55:33;;;;;;;1.30;0.70;;;11.50;99.90;;;;;;5024425;28;20551;-82
2022/11/03 06:58:10;;;;;;;1.35;0.65;;;11.40;99.90;;;;;;5021263;28;20046;-80
2022/11/03 07:00:38;;;;;;;1.45;0.80;;;11.30;99.90;;;;;;5022306;28;20136;-84
2022/11/03 07:03:29;;;;;;;1.58;0.57;;;11.20;99.90;;;;;;5038903;28;20496;-83
2022/11/03 07:06:09;;;;;;;1.27;0.60;;;11.00;99.90;;;;;;5036151;28;20063;-83
2022/11/03 07:08:49;;;;;;;1.08;0.40;;;11.00;99.90;;;;;;5030459;28;20049;-83
2022/11/03 07:11:21;;;;;;;0.95;0.73;;;10.90;99.90;;;;;;4999360;28;20053;-83
2022/11/03 07:14:01;;;;;;;0.63;0.50;;;10.90;99.90;;;;;;5033300;28;20107;-83
2022/11/03 07:16:40;;;;;;;0.60;0.50;;;11.00;99.90;;;;;;5037087;28;20042;-83
2022/11/03 07:19:32;;;;;;;0.90;0.73;;;11.00;99.90;;;;;;5023225;28;20684;-83
2022/11/03 07:22:01;;;;;;;0.73;0.43;;;10.90;99.90;;;;;;5032733;28;20056;-84
2022/11/03 07:24:30;;;;;;;0.47;0.40;;;10.90;99.90;;;;;;5017862;28;20053;-84
2022/11/03 07:27:14;;;;;;;0.43;0.40;;;10.90;99.90;;;;;;5014531;28;20405;-84
2022/11/03 07:29:41;;;;;;;0.45;0.35;;;10.90;99.90;;;;;;5039715;28;20493;-86
2022/11/03 07:32:14;;;;;;;0.45;0.32;;;10.90;99.90;;;;;;5048975;28;20196;-89
2022/11/03 07:34:41;;;;;;;1.23;0.50;;;10.90;99.90;;;;;;5013751;28;20049;-82
2022/11/03 07:37:23;;;;;;;0.70;0.47;;;10.90;99.90;;;;;;5037456;28;20049;-82
2022/11/03 07:39:50;;;;;;;0.57;0.50;;;10.80;99.90;;;;;;5010444;28;20057;-80
2022/11/03 07:42:26;;;;;;;0.50;0.50;;;10.80;99.90;;;;;;5026918;28;20048;-81
2022/11/03 07:44:53;;;;;;;0.47;0.47;;;10.80;99.90;;;;;;5023433;28;20378;-83
2022/11/03 07:47:21;;;;;;;0.90;0.50;;;10.90;99.90;;;;;;5014424;28;20049;-85
2022/11/03 07:49:48;;;;;;;0.25;0.25;;;10.90;99.90;;;;;;5011624;28;20162;-87
2022/11/03 07:52:19;;;;;;;0.30;0.30;;;10.90;99.90;;;;;;5046375;28;20498;-83
2022/11/03 07:54:46;;;;;;;0.40;0.38;;;11.00;99.90;;;;;;5025092;28;20084;-82
2022/11/03 07:57:16;;;;;;;0.30;0.30;;;11.00;99.90;;;;;;5017570;28;20056;-81
2022/11/03 07:59:45;;;;;;;0.20;0.20;;;11.00;99.90;;;;;;5021961;28;20088;-82
2022/11/03 08:02:36;;;;;;;0.32;0.32;;;11.00;99.90;;;;;;5022347;28;20045;-82
2022/11/03 08:05:03;;;;;;;0.40;0.40;;;11.00;99.90;;;;;;5024651;28;20049;-83
2022/11/03 08:07:31;;;;;;;0.40;0.30;;;11.10;99.90;;;;;;5033110;28;20399;-81
2022/11/03 08:09:58;;;;;;;0.30;0.30;;;11.10;99.90;;;;;;5020951;28;20132;-81
2022/11/03 08:12:25;;;;;;;0.40;0.35;;;11.20;99.90;;;;;;5040376;28;20048;-81
2022/11/03 08:14:51;;;;;;;0.63;0.50;;;11.10;99.90;;;;;;5019237;28;20053;-82
2022/11/03 08:17:18;;;;;;;0.50;0.40;;;11.20;99.90;;;;;;5024403;28;20052;-82
2022/11/03 08:19:45;;;;;;;0.40;0.40;;;11.20;99.90;;;;;;5023241;28;20496;-82
2022/11/03 08:22:12;;;;;;;0.30;0.30;;;11.20;99.90;;;;;;5007380;28;20425;-81
2022/11/03 08:24:38;;;;;;;0.28;0.28;;;11.20;99.90;;;;;;5034994;28;20622;-81
2022/11/03 08:27:05;;;;;;;0.30;0.30;;;11.20;99.90;;;;;;5022890;28;20049;-80
2022/11/03 08:29:32;;;;;;;0.73;0.45;;;11.20;99.90;;;;;;5018122;28;20084;-81
2022/11/03 08:31:59;;;;;;;0.38;0.38;;;11.20;99.90;;;;;;5021098;28;20050;-81
2022/11/03 08:34:26;;;;;;;0.43;0.43;;;11.20;99.90;;;;;;5016672;28;20052;-79
2022/11/03 08:36:52;;;;;;;0.30;0.30;;;11.30;99.90;;;;;;5026568;28;20053;-79
2022/11/03 08:39:20;;;;;;;0.20;0.20;;;11.20;99.90;;;;;;5032863;28;20445;-79
2022/11/03 08:41:46;;;;;;;0.50;0.38;;;11.20;99.90;;;;;;5037064;28;20057;-78
2022/11/03 08:44:13;;;;;;;0.40;0.40;;;11.00;99.90;;;;;;5030586;28;20282;-78
2022/11/03 08:46:40;;;;;;;0.50;0.40;;;11.00;99.90;;;;;;5027849;28;20092;-78
2022/11/03 08:49:07;;;;;;;0.20;0.20;;;11.00;99.90;;;;;;5032044;28;20099;-78
2022/11/03 08:51:37;;;;;;;0.40;0.40;;;11.00;99.90;;;;;;5012948;28;20136;-77
2022/11/03 08:54:10;;;;;;;0.28;0.28;;;11.00;99.90;;;;;;5032300;28;20049;-78
2022/11/03 08:56:37;;;;;;;0.22;0.13;;;11.00;99.90;;;;;;5029052;28;20147;-78
2022/11/03 08:59:04;;;;;;;0.40;0.40;;;11.00;99.90;;;;;;5028570;28;20562;-78
2022/11/03 09:01:30;;;;;;;0.40;0.40;;;11.00;99.90;;;;;;5028259;28;20049;-78
2022/11/03 09:03:57;;;;;;;0.43;0.38;;;11.00;99.90;;;;;;5033509;28;20052;-78
2022/11/03 09:06:24;;;;;;;0.82;0.75;;;11.10;99.90;;;;;;5034964;28;20045;-77
2022/11/03 09:08:51;;;;;;;0.45;0.20;;;11.10;99.90;;;;;;5028335;28;20143;-77
2022/11/03 09:11:38;;;;;;;0.40;0.40;;;11.20;99.90;;;;;;5040027;28;20049;-77
2022/11/03 09:14:05;;;;;;;0.70;0.40;;;11.20;99.90;;;;;;5015822;28;20064;-77
2022/11/03 09:16:31;;;;;;;0.40;0.38;;;11.10;99.90;;;;;;5021450;28;20050;-79
2022/11/03 09:18:58;;;;;;;0.40;0.40;;;11.00;99.90;;;;;;5027753;28;20053;-79
2022/11/03 09:21:25;;;;;;;0.85;0.40;;;11.00;99.90;;;;;;5021196;28;20465;-80
2022/11/03 09:23:52;;;;;;;0.32;0.30;;;11.10;99.90;;;;;;5028730;28;20048;-81
2022/11/03 09:26:19;;;;;;;0.40;0.35;;;11.10;99.90;;;;;;5019604;28;20060;-81
2022/11/03 09:28:46;;;;;;;0.63;0.50;;;11.10;99.90;;;;;;5005659;28;20056;-81
2022/11/03 09:31:13;;;;;;;0.43;0.28;;;11.10;99.90;;;;;;5035836;28;20049;-81
2022/11/03 09:33:40;;;;;;;0.60;0.40;;;11.10;99.90;;;;;;5040822;28;20829;-80
2022/11/03 09:36:07;;;;;;;0.38;0.38;;;11.10;99.90;;;;;;5023652;28;20055;-81
2022/11/03 09:38:34;;;;;;;0.47;0.47;;;11.10;99.90;;;;;;5036908;28;20071;-80
2022/11/03 09:41:02;;;;;;;0.40;0.40;;;11.10;99.90;;;;;;5039626;28;20076;-80
2022/11/03 09:43:39;;;;;;;0.50;0.40;;;11.10;99.90;;;;;;5014387;28;20049;-81
2022/11/03 09:46:06;;;;;;;0.52;0.40;;;11.10;99.90;;;;;;5025886;28;20052;-81
2022/11/03 09:48:33;;;;;;;0.80;0.60;;;11.00;99.90;;;;;;5032393;28;20091;-81
2022/11/03 09:51:01;;;;;;;0.45;0.40;;;11.00;99.90;;;;;;5020644;28;20057;-82
2022/11/03 09:53:28;;;;;;;0.65;0.50;;;10.90;99.90;;;;;;5030519;28;20136;-81
2022/11/03 09:55:56;;;;;;;0.50;0.50;;;10.90;99.90;;;;;;5011797;28;20065;-83
2022/11/03 09:58:22;;;;;;;0.38;0.38;;;10.90;99.90;;;;;;5029622;28;20045;-84
2022/11/03 10:00:49;;;;;;;0.40;0.40;;;11.00;99.90;;;;;;5010225;28;20057;-83
2022/11/03 10:03:16;;;;;;;0.90;0.70;;;10.90;99.90;;;;;;5035837;28;20049;-84
2022/11/03 10:05:43;;;;;;;0.55;0.40;;;10.90;99.90;;;;;;5035667;28;20049;-83
2022/11/03 10:08:21;;;;;;;0.60;0.60;;;10.80;99.90;;;;;;5048608;28;20065;-82
2022/11/03 10:10:49;;;;;;;0.57;0.50;;;10.80;99.90;;;;;;5049312;28;20091;-82
2022/11/03 10:13:36;;;;;;;0.60;0.47;;;10.90;99.90;;;;;;5025230;28;20084;-81
2022/11/03 10:16:08;;;;;;;0.40;0.40;;;11.00;99.90;;;;;;5010368;28;20049;-80
2022/11/03 10:18:35;;;;;;;0.70;0.50;;;10.90;99.90;;;;;;5028612;28;20068;-83
2022/11/03 10:21:10;;;;;;;0.40;0.30;;;11.00;99.90;;;;;;5010555;28;20049;-82
2022/11/03 10:23:37;;;;;;;0.38;0.38;;;10.90;99.90;;;;;;5027258;28;20554;-82
2022/11/03 10:26:17;;;;;;;0.50;0.50;;;10.90;99.90;;;;;;5043972;28;20484;-82
2022/11/03 10:29:07;;;;;;;0.45;0.20;;;11.00;99.90;;;;;;5027030;28;20064;-83
2022/11/03 10:31:36;;;;;;;0.38;0.35;;;11.10;99.90;;;;;;5041957;28;20076;-82
2022/11/03 10:34:03;;;;;;;0.20;0.20;;;11.00;99.90;;;;;;5023086;28;20069;-81
2022/11/03 10:36:32;;;;;;;0.63;0.40;;;11.10;99.90;;;;;;5005984;28;20140;-80
2022/11/03 10:39:00;;;;;;;0.40;0.40;;;11.10;99.90;;;;;;5006414;28;20057;-80
2022/11/03 10:41:31;;;;;;;1.08;0.45;;;11.10;99.90;;;;;;5038575;28;20063;-79
2022/11/03 10:44:09;;;;;;;0.20;0.20;;;11.20;99.90;;;;;;5041033;28;20063;-79
2022/11/03 10:46:37;;;;;;;0.38;0.32;;;11.10;99.90;;;;;;5033529;28;20073;-79
2022/11/03 10:49:18;;;;;;;0.43;0.43;;;11.20;99.90;;;;;;5013029;28;20045;-78
2022/11/03 10:51:52;;;;;;;0.40;0.40;;;11.10;99.90;;;;;;5039257;28;20053;-78
2022/11/03 10:54:22;;;;;;;0.40;0.40;;;11.20;99.90;;;;;;5041138;28;20054;-78
2022/11/03 10:56:49;;;;;;;0.40;0.40;;;11.30;99.90;;;;;;5042179;28;20052;-78
2022/11/03 10:59:30;;;;;;;0.40;0.40;;;11.30;99.90;;;;;;5004402;28;20053;-78
2022/11/03 11:01:58;;;;;;;0.32;0.32;;;11.30;99.90;;;;;;5019988;28;20045;-78
2022/11/03 11:04:25;;;;;;;0.35;0.35;;;11.40;99.90;;;;;;5034506;28;20790;-77
2022/11/03 11:06:52;;;;;;;0.52;0.30;;;11.40;99.90;;;;;;5025431;28;20697;-78
2022/11/03 11:09:24;;;;;;;0.52;0.30;;;11.50;99.90;;;;;;5024702;28;20053;-78
2022/11/03 11:12:02;;;;;;;0.50;0.30;;;11.50;99.90;;;;;;5025665;28;20045;-78
2022/11/03 11:14:29;;;;;;;0.38;0.38;;;11.50;99.90;;;;;;5003842;28;20136;-77
2022/11/03 11:16:57;;;;;;;0.40;0.40;;;11.50;99.90;;;;;;5023266;28;20632;-77
2022/11/03 11:19:25;;;;;;;0.57;0.40;;;11.50;99.90;;;;;;5011215;28;20056;-77
2022/11/03 11:21:52;;;;;;;0.30;0.30;;;11.50;99.90;;;;;;5022424;28;20140;-77
2022/11/03 11:24:41;;;;;;;0.30;0.30;;;11.60;99.90;;;;;;5034760;28;20060;-77
2022/11/03 11:27:35;;;;;;;0.50;0.50;;;11.60;99.90;;;;;;5043294;28;20053;-77
2022/11/03 11:30:23;;;;;;;0.30;0.30;;;11.70;99.90;;;;;;5040287;28;20053;-77
2022/11/03 11:32:59;;;;;;;0.57;0.40;;;11.70;99.90;;;;;;5041642;28;20057;-77
2022/11/03 11:35:26;;;;;;;0.55;0.22;;;11.70;99.90;;;;;;5039163;28;20127;-77
2022/11/03 11:37:53;;;;;;;0.40;0.40;;;11.70;99.90;;;;;;5042933;28;20945;-77
2022/11/03 11:40:23;;;;;;;0.60;0.30;;;11.70;99.90;;;;;;5004878;28;20346;-76
2022/11/03 11:43:12;;;;;;;0.60;0.60;;;11.80;99.90;;;;;;5023220;28;20053;-76
2022/11/03 11:46:16;;;;;;;0.20;0.20;;;11.80;99.90;;;;;;5020779;28;20115;-76
2022/11/03 11:48:43;;;;;;;0.93;0.73;;;11.90;99.90;;;;;;5026113;28;20053;-76
2022/11/03 11:51:10;;;;;;;1.25;0.77;;;11.80;99.90;;;;;;5040400;28;20431;-76
2022/11/03 11:53:41;;;;;;;1.27;0.80;;;11.70;99.90;;;;;;5024380;28;20353;-75
2022/11/03 11:56:11;;;;;;;1.42;1.13;;;11.70;99.90;;;;;;5024383;28;20060;-76
2022/11/03 11:58:41;;;;;;;1.65;0.98;;;11.80;99.90;;;;;;5024563;28;20064;-76
2022/11/03 12:01:29;;;;;;;1.70;0.80;;;11.80;99.90;;;;;;5038024;28;20057;-78
2022/11/03 12:04:00;;;;;;;1.00;0.80;;;11.90;99.90;;;;;;5025887;28;20102;-79
2022/11/03 12:06:34;;;;;;;2.58;1.08;;;11.90;99.90;;;;;;5025846;28;20608;-78
2022/11/03 12:09:05;;;;;;;1.65;0.70;;;12.00;99.90;;;;;;5005035;28;20060;-77
2022/11/03 12:11:45;;;;;;;0.70;0.70;;;11.90;99.90;;;;;;5004231;28;20065;-77
2022/11/03 12:14:24;;;;;;;1.15;0.73;;;11.90;99.90;;;;;;5034806;28;20053;-76
2022/11/03 12:16:52;;;;;;;0.70;0.70;;;11.90;99.90;;;;;;5041104;28;20147;-76
2022/11/03 12:19:52;;;;;;;1.60;1.00;;;11.90;99.90;;;;;;5004296;28;20049;-77
2022/11/03 12:22:22;;;;;;;1.13;0.90;;;11.80;99.90;;;;;;4984544;28;20116;-77
2022/11/03 12:24:55;;;;;;;0.73;0.57;;;11.90;99.90;;;;;;5028746;28;20129;-77
2022/11/03 12:27:25;;;;;;;1.23;0.70;;;12.00;99.90;;;;;;5004244;28;20489;-76
2022/11/03 12:29:53;;;;;;;1.33;0.90;;;12.00;99.90;;;;;;5032016;28;20057;-77
2022/11/03 12:32:20;;;;;;;0.50;0.43;;;12.00;99.90;;;;;;5024386;28;20052;-77
2022/11/03 12:35:00;;;;;;;0.70;0.60;;;11.90;99.90;;;;;;5035082;28;20045;-77
2022/11/03 12:37:27;;;;;;;1.15;0.57;;;11.90;99.90;;;;;;5039925;28;20144;-78
2022/11/03 12:39:53;;;;;;;0.40;0.40;;;12.00;99.90;;;;;;5023581;28;20049;-76
2022/11/03 12:42:21;;;;;;;0.77;0.60;;;11.90;99.90;;;;;;5020578;28;20137;-77
2022/11/03 12:44:48;;;;;;;0.90;0.65;;;11.90;99.90;;;;;;5034267;28;20094;-77
2022/11/03 12:47:15;;;;;;;0.68;0.68;;;11.90;99.90;;;;;;5023621;28;20053;-77
2022/11/03 12:49:42;;;;;;;0.70;0.63;;;11.90;99.90;;;;;;5029519;28;20063;-77
2022/11/03 12:52:10;;;;;;;0.70;0.70;;;12.00;99.90;;;;;;5019699;28;20045;-76
2022/11/03 12:54:36;;;;;;;0.80;0.68;;;12.10;99.90;;;;;;5014963;28;20507;-77
2022/11/03 12:57:03;;;;;;;1.33;0.98;;;12.10;99.90;;;;;;5033559;28;20509;-77
2022/11/03 12:59:31;;;;;;;0.75;0.70;;;12.10;99.90;;;;;;5037996;28;20059;-77
2022/11/03 13:01:58;;;;;;;1.40;0.77;;;12.20;99.90;;;;;;5003018;28;20603;-78
2022/11/03 13:04:26;;;;;;;1.30;0.93;;;12.30;99.90;;;;;;5037300;28;20049;-78
2022/11/03 13:06:52;;;;;;;0.88;0.73;;;12.30;99.90;;;;;;5023381;28;20060;-78
2022/11/03 13:09:19;;;;;;;1.40;0.90;;;12.30;99.90;;;;;;5038951;28;20117;-78
2022/11/03 13:14:31;;;;;;;0.68;0.68;;;12.20;99.90;;;;;;5031303;28;20250;-79
2022/11/03 13:16:58;;;;;;;1.25;0.73;;;12.20;99.90;;;;;;5023664;28;20088;-79
2022/11/03 13:19:25;;;;;;;1.17;0.80;;;12.10;99.90;;;;;;5038161;28;20143;-79
2022/11/03 13:21:52;;;;;;;1.63;0.73;;;12.10;99.90;;;;;;5003894;28;20057;-79